createdAt,value
2017-10-19T00:01:48.170Z,16.70
2017-10-19T00:04:15.575Z,15.00
2017-10-19T00:06:42.962Z,18.57
2017-10-19T00:09:10.364Z,18.17
2017-10-19T00:11:37.858Z,18.17
2017-10-19T00:14:05.258Z,16.97
2017-10-19T00:16:32.671Z,17.00
2017-10-19T00:19:00.089Z,17.60
2017-10-19T00:21:27.579Z,19.87
2017-10-19T00:23:54.976Z,16.77
2017-10-19T00:26:22.376Z,16.40
2017-10-19T00:28:49.778Z,19.60
2017-10-19T00:31:17.189Z,16.57
2017-10-19T00:33:44.669Z,18.20
2017-10-19T00:36:12.071Z,18.93
2017-10-19T00:38:39.463Z,20.83
2017-10-19T00:41:06.863Z,15.87
2017-10-19T00:43:34.249Z,16.00
2017-10-19T00:46:01.654Z,13.57
2017-10-19T00:48:29.051Z,13.17
2017-10-19T00:50:56.455Z,13.03
2017-10-19T00:53:23.872Z,12.17
2017-10-19T00:55:51.387Z,15.07
2017-10-19T00:58:18.771Z,17.80
2017-10-19T01:00:46.172Z,16.60
2017-10-19T01:03:13.557Z,15.27
2017-10-19T01:05:40.954Z,14.80
2017-10-19T01:08:08.438Z,14.97
2017-10-19T01:10:35.835Z,15.47
2017-10-19T01:13:03.230Z,14.80
2017-10-19T01:15:30.628Z,13.87
2017-10-19T01:17:58.027Z,13.67
2017-10-19T01:20:25.424Z,11.60
2017-10-19T01:22:52.823Z,15.33
2017-10-19T01:25:20.220Z,12.73
2017-10-19T01:27:47.695Z,12.20
2017-10-19T01:30:15.090Z,11.00
2017-10-19T01:32:42.486Z,11.87
2017-10-19T01:35:09.879Z,11.80
2017-10-19T01:37:37.279Z,11.80
2017-10-19T01:40:04.671Z,11.70
2017-10-19T01:42:32.084Z,13.17
2017-10-19T01:44:59.487Z,14.73
2017-10-19T01:47:26.876Z,13.30
2017-10-19T01:50:00.241Z,12.43
2017-10-19T01:52:27.637Z,11.10
2017-10-19T01:54:55.031Z,24.33
2017-10-19T01:57:22.429Z,15.73
2017-10-19T01:59:49.842Z,14.70
2017-10-19T02:02:17.247Z,12.97
2017-10-19T02:04:44.754Z,19.93
2017-10-19T02:07:12.171Z,26.37
2017-10-19T02:09:39.619Z,24.27
2017-10-19T02:12:07.125Z,24.30
2017-10-19T02:14:34.514Z,26.37
2017-10-19T02:17:01.915Z,25.23
2017-10-19T02:19:29.318Z,26.60
2017-10-19T02:21:56.713Z,25.60
2017-10-19T02:24:24.112Z,25.70
2017-10-19T02:26:51.546Z,24.30
2017-10-19T02:29:19.006Z,29.90
2017-10-19T02:31:46.402Z,30.97
2017-10-19T02:34:13.812Z,31.77
2017-10-19T02:36:41.207Z,33.23
2017-10-19T02:39:08.626Z,34.07
2017-10-19T02:41:36.018Z,32.70
2017-10-19T02:44:03.447Z,32.90
2017-10-19T02:46:30.855Z,32.10
2017-10-19T02:48:58.251Z,29.20
2017-10-19T02:51:25.715Z,34.23
2017-10-19T02:53:53.107Z,31.67
2017-10-19T02:56:20.618Z,33.77
2017-10-19T02:58:48.019Z,30.60
2017-10-19T03:01:15.433Z,32.17
2017-10-19T03:03:42.830Z,29.97
2017-10-19T03:06:10.247Z,28.53
2017-10-19T03:08:37.642Z,26.93
2017-10-19T03:11:05.057Z,26.87
2017-10-19T03:13:32.466Z,29.37
2017-10-19T03:15:59.965Z,25.13
2017-10-19T03:18:27.363Z,27.87
2017-10-19T03:20:54.762Z,27.60
2017-10-19T03:23:22.163Z,31.60
2017-10-19T03:25:49.566Z,32.37
2017-10-19T03:28:16.963Z,30.83
2017-10-19T03:30:44.366Z,28.70
2017-10-19T03:33:11.762Z,28.43
2017-10-19T03:35:39.186Z,36.90
2017-10-19T03:38:06.586Z,31.43
2017-10-19T03:40:33.983Z,27.00
2017-10-19T03:43:01.427Z,32.30
2017-10-19T03:45:28.831Z,32.20
2017-10-19T03:47:56.238Z,31.90
2017-10-19T03:50:23.626Z,31.97
2017-10-19T03:52:51.030Z,30.73
2017-10-19T03:55:18.426Z,39.40
2017-10-19T03:57:45.832Z,33.10
2017-10-19T04:00:13.230Z,33.67
2017-10-19T04:02:40.649Z,33.97
2017-10-19T04:05:08.042Z,30.17
2017-10-19T04:07:35.513Z,29.00
2017-10-19T04:10:02.905Z,34.30
2017-10-19T04:12:30.347Z,29.30
2017-10-19T04:14:57.746Z,31.50
2017-10-19T04:17:25.259Z,30.97
2017-10-19T04:19:52.650Z,31.10
2017-10-19T04:22:20.077Z,38.63
2017-10-19T04:24:47.467Z,33.00
2017-10-19T04:27:14.891Z,31.83
2017-10-19T04:29:42.282Z,32.23
2017-10-19T04:32:09.682Z,30.45
2017-10-19T04:34:37.082Z,32.03
2017-10-19T04:37:04.487Z,41.30
2017-10-19T04:39:31.890Z,35.70
2017-10-19T04:42:00.938Z,37.53
2017-10-19T04:44:28.338Z,33.57
2017-10-19T04:46:55.747Z,32.97
2017-10-19T04:49:23.151Z,31.43
2017-10-19T04:51:50.547Z,32.37
2017-10-19T04:54:17.953Z,30.93
2017-10-19T04:56:45.355Z,35.10
2017-10-19T04:59:12.762Z,32.17
2017-10-19T05:01:40.179Z,30.47
2017-10-19T05:04:07.651Z,30.20
2017-10-19T05:06:35.047Z,36.60
2017-10-19T05:09:02.466Z,33.67
2017-10-19T05:11:29.866Z,37.10
2017-10-19T05:13:57.278Z,34.03
2017-10-19T05:16:24.683Z,35.43
2017-10-19T05:18:52.098Z,36.30
2017-10-19T05:21:19.495Z,35.33
2017-10-19T05:23:46.919Z,37.80
2017-10-19T05:26:14.336Z,31.53
2017-10-19T05:28:41.723Z,30.87
2017-10-19T05:31:09.135Z,32.10
2017-10-19T05:33:36.571Z,36.43
2017-10-19T05:36:03.996Z,37.27
2017-10-19T05:38:31.398Z,34.93
2017-10-19T05:40:59.603Z,36.17
2017-10-19T05:43:26.998Z,32.33
2017-10-19T05:45:54.402Z,28.93
2017-10-19T05:48:21.874Z,31.20
2017-10-19T05:50:49.283Z,32.20
2017-10-19T05:53:16.683Z,35.20
2017-10-19T05:55:44.086Z,33.80
2017-10-19T05:58:11.488Z,31.43
2017-10-19T06:00:38.959Z,35.00
2017-10-19T06:03:06.355Z,38.97
2017-10-19T06:05:33.758Z,34.07
2017-10-19T06:08:01.150Z,34.43
2017-10-19T06:10:28.550Z,31.60
2017-10-19T06:12:56.043Z,28.60
2017-10-19T06:15:23.452Z,28.23
2017-10-19T06:17:50.957Z,27.83
2017-10-19T06:20:18.357Z,29.60
2017-10-19T06:22:45.770Z,28.93
2017-10-19T06:25:13.194Z,29.43
2017-10-19T06:27:40.685Z,25.90
2017-10-19T06:30:08.094Z,30.20
2017-10-19T06:32:35.513Z,34.83
2017-10-19T06:35:02.907Z,27.57
2017-10-19T06:37:30.311Z,27.53
2017-10-19T06:39:57.712Z,34.50
2017-10-19T06:42:25.113Z,27.00
2017-10-19T06:44:52.518Z,28.30
2017-10-19T06:47:19.926Z,27.97
2017-10-19T06:49:47.372Z,24.83
2017-10-19T06:52:14.774Z,27.10
2017-10-19T06:54:42.195Z,25.33
2017-10-19T06:57:09.602Z,28.37
2017-10-19T06:59:36.999Z,24.37
2017-10-19T07:02:04.425Z,22.70
2017-10-19T07:04:31.826Z,23.77
2017-10-19T07:06:59.232Z,26.33
2017-10-19T07:09:26.626Z,22.60
2017-10-19T07:11:54.022Z,22.80
2017-10-19T07:14:21.418Z,23.10
2017-10-19T07:16:48.822Z,24.27
2017-10-19T07:19:16.222Z,23.40
2017-10-19T07:21:43.631Z,23.97
2017-10-19T07:24:11.029Z,27.50
2017-10-19T07:26:38.431Z,23.03
2017-10-19T07:29:05.834Z,24.93
2017-10-19T07:31:33.235Z,28.43
2017-10-19T07:34:00.631Z,24.17
2017-10-19T07:36:28.039Z,23.53
2017-10-19T07:38:55.439Z,26.23
2017-10-19T07:41:22.846Z,24.73
2017-10-19T07:43:50.252Z,25.00
2017-10-19T07:46:17.659Z,26.97
2017-10-19T07:48:45.062Z,25.03
2017-10-19T07:51:12.526Z,27.90
2017-10-19T07:53:39.922Z,25.93
2017-10-19T07:56:07.337Z,24.50
2017-10-19T07:58:34.730Z,25.53
2017-10-19T08:01:02.138Z,25.50
2017-10-19T08:03:29.534Z,27.73
2017-10-19T08:05:56.986Z,23.20
2017-10-19T08:08:24.384Z,24.73
2017-10-19T08:10:51.786Z,25.70
2017-10-19T08:13:19.186Z,23.77
2017-10-19T08:15:46.632Z,24.80
2017-10-19T08:18:14.011Z,25.87
2017-10-19T08:20:41.419Z,23.77
2017-10-19T08:23:08.818Z,21.43
2017-10-19T08:25:36.208Z,22.07
2017-10-19T08:28:03.603Z,24.50
2017-10-19T08:30:30.995Z,23.37
2017-10-19T08:32:58.400Z,21.00
2017-10-19T08:35:25.818Z,21.90
2017-10-19T08:37:53.218Z,20.27
2017-10-19T08:40:20.612Z,21.33
2017-10-19T08:42:48.015Z,22.67
2017-10-19T08:45:15.488Z,21.10
2017-10-19T08:47:42.886Z,20.13
2017-10-19T08:50:10.285Z,21.17
2017-10-19T08:52:37.687Z,20.23
2017-10-19T08:55:07.482Z,20.93
2017-10-19T08:57:34.890Z,20.27
2017-10-19T09:00:02.289Z,20.70
2017-10-19T09:02:29.699Z,21.33
2017-10-19T09:04:57.158Z,21.70
2017-10-19T09:07:24.561Z,21.00
2017-10-19T09:09:52.006Z,19.23
2017-10-19T09:12:19.406Z,20.33
2017-10-19T09:14:46.798Z,19.70
2017-10-19T09:17:14.198Z,19.10
2017-10-19T09:19:41.594Z,21.00
2017-10-19T09:22:08.989Z,21.37
2017-10-19T09:24:36.383Z,22.00
2017-10-19T09:27:03.775Z,21.77
2017-10-19T09:29:31.183Z,22.80
2017-10-19T09:31:58.575Z,21.50
2017-10-19T09:34:25.974Z,20.03
2017-10-19T09:36:53.380Z,21.10
2017-10-19T09:39:20.783Z,19.27
2017-10-19T09:41:48.174Z,19.47
2017-10-19T09:44:15.575Z,16.50
2017-10-19T09:46:42.972Z,18.77
2017-10-19T09:49:10.486Z,17.03
2017-10-19T09:51:37.882Z,15.97
2017-10-19T09:54:05.283Z,17.23
2017-10-19T09:56:32.681Z,16.87
2017-10-19T09:59:00.084Z,16.50
2017-10-19T10:01:27.479Z,17.10
2017-10-19T10:03:54.918Z,14.00
2017-10-19T10:06:22.303Z,15.87
2017-10-19T10:08:49.844Z,15.53
2017-10-19T10:11:17.239Z,15.77
2017-10-19T10:13:44.630Z,15.97
2017-10-19T10:16:12.030Z,16.90
2017-10-19T10:18:39.423Z,16.37
2017-10-19T10:21:06.817Z,16.70
2017-10-19T10:23:34.219Z,16.63
2017-10-19T10:26:01.615Z,16.67
2017-10-19T10:28:29.015Z,18.77
2017-10-19T10:30:56.434Z,19.93
2017-10-19T10:33:23.835Z,18.60
2017-10-19T10:35:51.450Z,18.73
2017-10-19T10:38:18.850Z,18.10
2017-10-19T10:40:46.257Z,17.43
2017-10-19T10:43:13.643Z,18.17
2017-10-19T10:45:41.043Z,17.10
2017-10-19T10:48:08.445Z,18.13
2017-10-19T10:50:36.015Z,18.33
2017-10-19T10:53:03.454Z,16.47
2017-10-19T10:55:30.858Z,17.13
2017-10-19T10:57:58.256Z,16.60
2017-10-19T11:00:25.655Z,16.33
2017-10-19T11:02:53.043Z,15.83
2017-10-19T11:05:20.446Z,14.30
2017-10-19T11:07:47.838Z,16.27
2017-10-19T11:10:15.230Z,14.90
2017-10-19T11:12:42.630Z,16.40
2017-10-19T11:15:10.037Z,14.70
2017-10-19T11:17:37.510Z,14.47
2017-10-19T11:20:04.904Z,14.80
2017-10-19T11:22:32.308Z,15.17
2017-10-19T11:24:59.698Z,15.13
2017-10-19T11:27:27.107Z,13.63
2017-10-19T11:29:54.587Z,14.90
2017-10-19T11:32:22.017Z,15.50
2017-10-19T11:34:49.412Z,15.30
2017-10-19T11:37:16.811Z,15.47
2017-10-19T11:39:44.197Z,14.47
2017-10-19T11:42:11.612Z,14.03
2017-10-19T11:44:39.002Z,14.63
2017-10-19T11:47:06.482Z,15.10
2017-10-19T11:49:33.883Z,14.13
2017-10-19T11:52:01.285Z,13.57
2017-10-19T11:54:28.678Z,16.90
2017-10-19T11:56:56.084Z,14.87
2017-10-19T11:59:23.482Z,13.77
2017-10-19T12:01:50.890Z,12.67
2017-10-19T12:04:18.375Z,13.60
2017-10-19T12:06:45.787Z,13.50
2017-10-19T12:09:13.183Z,13.53
2017-10-19T12:11:40.573Z,12.57
2017-10-19T12:14:07.976Z,13.30
2017-10-19T12:16:35.374Z,12.37
2017-10-19T12:19:02.772Z,14.17
2017-10-19T12:21:30.267Z,13.93
2017-10-19T12:23:57.666Z,13.30
2017-10-19T12:26:25.054Z,15.07
2017-10-19T12:28:52.462Z,14.70
2017-10-19T12:31:19.864Z,13.30
2017-10-19T12:33:47.266Z,13.23
2017-10-19T12:36:14.651Z,13.67
2017-10-19T12:38:42.066Z,13.20
2017-10-19T12:41:09.462Z,12.87
2017-10-19T12:43:36.870Z,13.00
2017-10-19T12:46:04.272Z,12.20
2017-10-19T12:48:31.671Z,12.10
2017-10-19T12:50:59.067Z,11.57
2017-10-19T12:53:26.467Z,12.67
2017-10-19T12:55:53.955Z,13.07
2017-10-19T12:58:21.360Z,13.10
2017-10-19T13:00:48.755Z,12.70
2017-10-19T13:03:16.154Z,12.57
2017-10-19T13:05:43.560Z,12.67
2017-10-19T13:08:10.956Z,13.00
2017-10-19T13:10:38.361Z,12.50
2017-10-19T13:13:05.751Z,13.57
2017-10-19T13:15:33.209Z,13.13
2017-10-19T13:18:00.603Z,13.00
2017-10-19T13:20:28.007Z,13.90
2017-10-19T13:22:55.399Z,13.40
2017-10-19T13:25:22.803Z,12.57
2017-10-19T13:27:50.287Z,12.70
2017-10-19T13:30:17.695Z,12.40
2017-10-19T13:32:45.107Z,12.30
2017-10-19T13:35:12.506Z,12.23
2017-10-19T13:37:39.923Z,12.33
2017-10-19T13:40:07.327Z,13.70
2017-10-19T13:42:34.722Z,14.50
2017-10-19T13:45:02.127Z,13.43
2017-10-19T13:47:29.522Z,13.30
2017-10-19T13:49:56.964Z,13.60
2017-10-19T13:52:24.459Z,15.20
2017-10-19T13:54:51.846Z,12.70
2017-10-19T13:57:19.242Z,11.10
2017-10-19T13:59:46.635Z,11.73
2017-10-19T14:02:14.047Z,11.23
2017-10-19T14:04:41.439Z,12.03
2017-10-19T14:07:08.847Z,11.23
2017-10-19T14:09:36.295Z,10.33
2017-10-19T14:12:03.814Z,9.73
2017-10-19T14:14:31.367Z,10.57
2017-10-19T14:16:58.775Z,10.30
2017-10-19T14:19:26.359Z,10.80
2017-10-19T14:21:53.751Z,11.27
2017-10-19T14:24:21.147Z,10.70
2017-10-19T14:26:48.545Z,10.50
2017-10-19T14:29:15.943Z,10.30
2017-10-19T14:31:43.342Z,9.53
2017-10-19T14:34:10.742Z,9.60
2017-10-19T14:36:38.126Z,9.40
2017-10-19T14:39:05.642Z,10.60
2017-10-19T14:41:33.035Z,10.20
2017-10-19T14:44:00.426Z,10.80
2017-10-19T14:46:27.854Z,9.63
2017-10-19T14:48:55.358Z,10.23
2017-10-19T14:51:22.759Z,10.67
2017-10-19T14:53:50.151Z,11.63
2017-10-19T14:56:17.615Z,10.90
2017-10-19T14:58:45.003Z,8.93
2017-10-19T15:01:12.398Z,11.13
2017-10-19T15:03:39.804Z,10.93
2017-10-19T15:06:07.211Z,10.40
2017-10-19T15:08:34.611Z,10.30
2017-10-19T15:11:02.002Z,11.20
2017-10-19T15:13:29.422Z,10.53
2017-10-19T15:15:56.814Z,11.13
2017-10-19T15:18:24.220Z,11.87
2017-10-19T15:20:51.695Z,12.00
2017-10-19T15:23:19.147Z,13.00
2017-10-19T15:25:46.606Z,11.97
2017-10-19T15:28:13.999Z,12.30
2017-10-19T15:30:41.403Z,12.20
2017-10-19T15:33:08.886Z,12.83
2017-10-19T15:35:36.279Z,12.70
2017-10-19T15:38:03.692Z,12.53
2017-10-19T15:40:31.087Z,12.33
2017-10-19T15:42:58.498Z,11.90
2017-10-19T15:45:25.920Z,12.67
2017-10-19T15:47:53.324Z,13.47
2017-10-19T15:50:20.718Z,12.87
2017-10-19T15:52:48.122Z,12.00
2017-10-19T15:55:15.510Z,12.20
2017-10-19T15:57:42.934Z,13.07
2017-10-19T16:00:10.331Z,14.00
2017-10-19T16:02:37.724Z,13.87
2017-10-19T16:05:05.134Z,14.60
2017-10-19T16:07:32.522Z,15.07
2017-10-19T16:09:59.940Z,15.40
2017-10-19T16:12:27.389Z,16.73
2017-10-19T16:14:54.826Z,16.67
2017-10-19T16:17:22.228Z,15.63
2017-10-19T16:19:49.637Z,15.80
2017-10-19T16:22:17.030Z,16.10
2017-10-19T16:24:44.434Z,17.57
2017-10-19T16:27:11.831Z,17.17
2017-10-19T16:29:39.237Z,16.70
2017-10-19T16:32:06.630Z,16.23
2017-10-19T16:34:34.040Z,16.93
2017-10-19T16:37:01.426Z,15.90
2017-10-19T16:39:28.871Z,17.93
2017-10-19T16:41:56.279Z,17.03
2017-10-19T16:44:23.682Z,18.30
2017-10-19T16:46:51.083Z,18.17
2017-10-19T16:49:18.582Z,16.80
2017-10-19T16:51:46.075Z,18.07
2017-10-19T16:54:13.559Z,18.67
2017-10-19T16:56:40.955Z,17.90
2017-10-19T16:59:08.356Z,19.97
2017-10-19T17:01:35.812Z,22.70
2017-10-19T17:04:03.203Z,22.37
2017-10-19T17:06:30.603Z,22.43
2017-10-19T17:08:58.633Z,25.40
2017-10-19T17:11:26.058Z,24.43
2017-10-19T17:13:53.825Z,25.70
2017-10-19T17:16:21.230Z,27.77
2017-10-19T17:18:48.884Z,29.30
2017-10-19T17:21:16.302Z,29.70
2017-10-19T17:23:43.694Z,30.57
2017-10-19T17:26:11.183Z,30.97
2017-10-19T17:28:38.572Z,32.03
2017-10-19T17:31:05.970Z,34.33
2017-10-19T17:33:33.496Z,34.30
2017-10-19T17:36:00.891Z,37.80
2017-10-19T17:38:28.278Z,37.97
2017-10-19T17:40:55.725Z,38.77
2017-10-19T17:43:23.120Z,36.43
2017-10-19T17:45:50.523Z,38.40
2017-10-19T17:48:17.919Z,38.10
2017-10-19T17:50:45.432Z,41.33
2017-10-19T17:53:12.831Z,39.80
2017-10-19T17:55:40.261Z,40.27
2017-10-19T17:58:07.712Z,40.47
2017-10-19T18:00:35.107Z,40.00
2017-10-19T18:03:02.576Z,41.23
2017-10-19T18:05:30.610Z,43.80
2017-10-19T18:07:58.039Z,43.10
2017-10-19T18:10:25.435Z,45.67
2017-10-19T18:12:52.838Z,44.20
2017-10-19T18:15:20.267Z,42.47
2017-10-19T18:17:47.660Z,43.50
2017-10-19T18:20:15.050Z,44.27
2017-10-19T18:22:42.462Z,44.93
2017-10-19T18:25:09.883Z,45.50
2017-10-19T18:27:37.315Z,44.70
2017-10-19T18:30:04.698Z,47.13
2017-10-19T18:32:32.103Z,46.07
2017-10-19T18:34:59.526Z,43.70
2017-10-19T18:37:26.915Z,46.57
2017-10-19T18:39:54.339Z,47.83
2017-10-19T18:42:21.730Z,45.97
2017-10-19T18:44:49.118Z,47.03
2017-10-19T18:47:16.530Z,46.17
2017-10-19T18:49:43.919Z,46.37
2017-10-19T18:52:11.318Z,43.37
2017-10-19T18:54:38.710Z,45.57
2017-10-19T18:57:06.214Z,47.10
2017-10-19T18:59:33.613Z,48.47
2017-10-19T19:02:01.019Z,48.40
2017-10-19T19:04:28.427Z,46.37
2017-10-19T19:06:55.819Z,47.87
2017-10-19T19:09:23.219Z,52.63
2017-10-19T19:11:50.616Z,50.53
2017-10-19T19:14:18.027Z,47.30
2017-10-19T19:16:45.423Z,49.20
2017-10-19T19:19:12.829Z,48.50
2017-10-19T19:21:40.222Z,47.27
2017-10-19T19:24:07.630Z,48.87
2017-10-19T19:26:35.083Z,49.53
2017-10-19T19:29:02.543Z,49.60
2017-10-19T19:31:29.938Z,52.57
2017-10-19T19:33:57.383Z,49.03
2017-10-19T19:36:24.783Z,50.03
2017-10-19T19:38:52.237Z,53.50
2017-10-19T19:41:19.722Z,49.07
2017-10-19T19:46:15.355Z,51.03
2017-10-19T19:48:42.764Z,50.27
2017-10-19T19:51:10.266Z,49.83
2017-10-19T19:53:37.675Z,51.07
2017-10-19T19:56:05.066Z,54.60
2017-10-19T19:58:32.471Z,55.90
2017-10-19T20:00:59.867Z,57.50
2017-10-19T20:03:27.271Z,53.77
2017-10-19T20:05:54.666Z,54.43
2017-10-19T20:08:22.121Z,57.97
2017-10-19T20:10:49.512Z,58.33
2017-10-19T20:13:16.967Z,54.37
2017-10-19T20:15:44.362Z,54.97
2017-10-19T20:18:11.768Z,54.10
2017-10-19T20:20:39.166Z,56.23
2017-10-19T20:23:06.564Z,55.47
2017-10-19T20:25:33.966Z,59.50
2017-10-19T20:28:01.376Z,56.00
2017-10-19T20:30:28.779Z,54.77
2017-10-19T20:32:56.174Z,53.43
2017-10-19T20:35:23.581Z,57.10
2017-10-19T20:37:50.974Z,55.33
2017-10-19T20:40:18.376Z,55.00
2017-10-19T20:42:45.771Z,55.80
2017-10-19T20:45:13.175Z,55.60
2017-10-19T20:47:40.643Z,56.80
2017-10-19T20:50:08.054Z,55.53
2017-10-19T20:52:35.449Z,56.57
2017-10-19T20:55:02.851Z,59.93
2017-10-19T20:57:30.287Z,56.60
2017-10-19T20:59:57.687Z,59.57
2017-10-19T21:02:25.082Z,57.70
2017-10-19T21:04:52.490Z,62.30
2017-10-19T21:07:19.995Z,56.83
2017-10-19T21:09:49.026Z,62.27
2017-10-19T21:12:17.538Z,60.57
2017-10-19T21:14:44.946Z,56.50
2017-10-19T21:17:12.351Z,58.67
2017-10-19T21:19:39.834Z,55.93
2017-10-19T21:22:07.230Z,58.03
2017-10-19T21:24:34.630Z,54.40
2017-10-19T21:27:02.050Z,57.50
2017-10-19T21:29:29.462Z,54.37
2017-10-19T21:31:56.877Z,56.03
2017-10-19T21:34:24.270Z,55.27
2017-10-19T21:36:51.678Z,61.60
2017-10-19T21:39:19.083Z,62.23
2017-10-19T21:41:46.495Z,60.97
2017-10-19T21:44:14.000Z,58.67
2017-10-19T21:46:41.403Z,60.17
2017-10-19T21:49:08.816Z,55.60
2017-10-19T21:51:36.210Z,54.77
2017-10-19T21:54:03.727Z,58.30
2017-10-19T21:56:31.134Z,55.13
2017-10-19T21:58:58.538Z,53.80
2017-10-19T22:01:25.970Z,55.20
2017-10-19T22:03:53.351Z,54.10
2017-10-19T22:06:20.765Z,52.47
2017-10-19T22:08:48.155Z,49.63
2017-10-19T22:11:15.556Z,48.60
2017-10-19T22:13:42.955Z,52.93
2017-10-19T22:16:10.358Z,52.43
2017-10-19T22:18:37.762Z,53.90
2017-10-19T22:21:05.180Z,55.73
2017-10-19T22:23:32.580Z,53.90
2017-10-19T22:25:59.990Z,52.27
2017-10-19T22:28:27.420Z,56.37
2017-10-19T22:30:54.830Z,57.57
2017-10-19T22:33:22.249Z,63.33
2017-10-19T22:35:49.659Z,56.50
2017-10-19T22:38:17.068Z,57.43
2017-10-19T22:40:44.466Z,58.93
2017-10-19T22:43:11.889Z,54.60
2017-10-19T22:45:39.307Z,50.33
2017-10-19T22:48:06.716Z,50.57
2017-10-19T22:50:34.145Z,54.67
2017-10-19T22:53:01.510Z,50.17
2017-10-19T22:55:28.919Z,54.10
2017-10-19T22:57:56.323Z,52.80
2017-10-19T23:00:23.723Z,53.90
2017-10-19T23:02:51.131Z,50.20
2017-10-19T23:05:18.523Z,50.80
2017-10-19T23:07:45.937Z,51.80
2017-10-19T23:10:13.403Z,50.97
2017-10-19T23:12:40.811Z,49.67
2017-10-19T23:15:08.316Z,50.70
2017-10-19T23:17:35.722Z,49.40
2017-10-19T23:20:03.134Z,49.67
2017-10-19T23:22:30.534Z,51.30
2017-10-19T23:24:57.924Z,51.27
2017-10-19T23:27:25.314Z,50.00
2017-10-19T23:29:52.730Z,51.13
2017-10-19T23:32:20.120Z,49.77
2017-10-19T23:34:47.534Z,51.07
2017-10-19T23:37:14.931Z,53.20
2017-10-19T23:39:42.338Z,52.50
2017-10-19T23:42:09.841Z,51.83
2017-10-19T23:44:37.250Z,50.90
2017-10-19T23:47:04.632Z,48.70
2017-10-19T23:49:32.031Z,47.60
2017-10-19T23:51:59.429Z,47.60
2017-10-19T23:54:26.828Z,47.93
2017-10-19T23:56:54.221Z,49.87
2017-10-19T23:59:21.636Z,46.73
